sensor_id;sensor_type;location;lat;lon;timestamp;temperature;humidity
74901;DHT22;63461;51.416;6.758;2023-05-20T00:00:32;13.90;99.90
74901;DHT22;63461;51.416;6.758;2023-05-20T00:02:58;13.90;99.90
74901;DHT22;63461;51.416;6.758;2023-05-20T00:05:25;13.90;99.90
74901;DHT22;63461;51.416;6.758;2023-05-20T00:07:51;13.90;99.90
74901;DHT22;63461;51.416;6.758;2023-05-20T00:10:17;13.80;99.90
74901;DHT22;63461;51.416;6.758;2023-05-20T00:12:43;13.80;99.90
74901;DHT22;63461;51.416;6.758;2023-05-20T00:15:09;13.80;99.90
74901;DHT22;63461;51.416;6.758;2023-05-20T00:17:37;13.80;99.90
74901;DHT22;63461;51.416;6.758;2023-05-20T00:20:03;13.80;99.90
74901;DHT22;63461;51.416;6.758;2023-05-20T00:22:30;13.80;99.90
74901;DHT22;63461;51.416;6.758;2023-05-20T00:24:56;13.80;99.90
74901;DHT22;63461;51.416;6.758;2023-05-20T00:27:21;13.70;99.90
74901;DHT22;63461;51.416;6.758;2023-05-20T00:29:47;13.70;99.90
74901;DHT22;63461;51.416;6.758;2023-05-20T00:32:13;13.70;99.90
74901;DHT22;63461;51.416;6.758;2023-05-20T00:34:39;13.60;99.90
74901;DHT22;63461;51.416;6.758;2023-05-20T00:37:05;13.60;99.90
74901;DHT22;63461;51.416;6.758;2023-05-20T00:39:31;13.60;99.90
74901;DHT22;63461;51.416;6.758;2023-05-20T00:41:56;13.60;99.90
74901;DHT22;63461;51.416;6.758;2023-05-20T00:44:28;13.60;99.90
74901;DHT22;63461;51.416;6.758;2023-05-20T00:46:54;13.60;99.90
74901;DHT22;63461;51.416;6.758;2023-05-20T00:49:20;13.50;99.90
74901;DHT22;63461;51.416;6.758;2023-05-20T00:51:48;13.50;99.90
74901;DHT22;63461;51.416;6.758;2023-05-20T00:54:14;13.50;99.90
74901;DHT22;63461;51.416;6.758;2023-05-20T00:56:40;13.50;99.90
74901;DHT22;63461;51.416;6.758;2023-05-20T00:59:07;13.40;99.90
74901;DHT22;63461;51.416;6.758;2023-05-20T01:01:33;13.40;99.90
74901;DHT22;63461;51.416;6.758;2023-05-20T01:03:59;13.40;99.90
74901;DHT22;63461;51.416;6.758;2023-05-20T01:06:24;13.40;99.90
74901;DHT22;63461;51.416;6.758;2023-05-20T01:08:50;13.30;99.90
74901;DHT22;63461;51.416;6.758;2023-05-20T01:11:30;13.30;99.90
74901;DHT22;63461;51.416;6.758;2023-05-20T01:14:00;13.30;99.90
74901;DHT22;63461;51.416;6.758;2023-05-20T01:16:27;13.20;99.90
74901;DHT22;63461;51.416;6.758;2023-05-20T01:18:55;13.30;99.90
74901;DHT22;63461;51.416;6.758;2023-05-20T01:21:22;13.30;99.90
74901;DHT22;63461;51.416;6.758;2023-05-20T01:23:48;13.30;99.90
74901;DHT22;63461;51.416;6.758;2023-05-20T01:26:14;13.20;99.90
74901;DHT22;63461;51.416;6.758;2023-05-20T01:28:40;13.20;99.90
74901;DHT22;63461;51.416;6.758;2023-05-20T01:31:14;13.20;99.90
74901;DHT22;63461;51.416;6.758;2023-05-20T01:33:42;13.20;99.90
74901;DHT22;63461;51.416;6.758;2023-05-20T01:36:09;13.20;99.90
74901;DHT22;63461;51.416;6.758;2023-05-20T01:38:35;13.10;99.90
74901;DHT22;63461;51.416;6.758;2023-05-20T01:41:03;13.10;99.90
74901;DHT22;63461;51.416;6.758;2023-05-20T01:43:32;13.10;99.90
74901;DHT22;63461;51.416;6.758;2023-05-20T01:45:58;13.10;99.90
74901;DHT22;63461;51.416;6.758;2023-05-20T01:48:23;13.10;99.90
74901;DHT22;63461;51.416;6.758;2023-05-20T01:50:51;13.00;99.90
74901;DHT22;63461;51.416;6.758;2023-05-20T01:53:16;13.00;99.90
74901;DHT22;63461;51.416;6.758;2023-05-20T01:55:42;13.00;99.90
74901;DHT22;63461;51.416;6.758;2023-05-20T01:58:08;13.00;99.90
74901;DHT22;63461;51.416;6.758;2023-05-20T02:00:35;13.00;99.90
74901;DHT22;63461;51.416;6.758;2023-05-20T02:03:00;13.00;99.90
74901;DHT22;63461;51.416;6.758;2023-05-20T02:05:28;13.00;99.90
74901;DHT22;63461;51.416;6.758;2023-05-20T02:07:55;12.90;99.90
74901;DHT22;63461;51.416;6.758;2023-05-20T02:10:21;12.90;99.90
74901;DHT22;63461;51.416;6.758;2023-05-20T02:12:47;12.90;99.90
74901;DHT22;63461;51.416;6.758;2023-05-20T02:15:14;12.90;99.90
74901;DHT22;63461;51.416;6.758;2023-05-20T02:17:40;12.90;99.90
74901;DHT22;63461;51.416;6.758;2023-05-20T02:20:08;12.90;99.90
74901;DHT22;63461;51.416;6.758;2023-05-20T02:22:35;12.90;99.90
74901;DHT22;63461;51.416;6.758;2023-05-20T02:25:02;12.90;99.90
74901;DHT22;63461;51.416;6.758;2023-05-20T02:27:28;12.80;99.90
74901;DHT22;63461;51.416;6.758;2023-05-20T02:29:54;12.80;99.90
74901;DHT22;63461;51.416;6.758;2023-05-20T02:32:19;12.80;99.90
74901;DHT22;63461;51.416;6.758;2023-05-20T02:34:45;12.80;99.90
74901;DHT22;63461;51.416;6.758;2023-05-20T02:37:11;12.80;99.90
74901;DHT22;63461;51.416;6.758;2023-05-20T02:39:37;12.80;99.90
74901;DHT22;63461;51.416;6.758;2023-05-20T02:42:03;12.80;99.90
74901;DHT22;63461;51.416;6.758;2023-05-20T02:44:29;12.70;99.90
74901;DHT22;63461;51.416;6.758;2023-05-20T02:46:55;12.70;99.90
74901;DHT22;63461;51.416;6.758;2023-05-20T02:49:21;12.70;99.90
74901;DHT22;63461;51.416;6.758;2023-05-20T02:51:47;12.70;99.90
74901;DHT22;63461;51.416;6.758;2023-05-20T02:54:14;12.70;99.90
74901;DHT22;63461;51.416;6.758;2023-05-20T02:56:40;12.70;99.90
74901;DHT22;63461;51.416;6.758;2023-05-20T02:59:05;12.60;99.90
74901;DHT22;63461;51.416;6.758;2023-05-20T03:01:32;12.60;99.90
74901;DHT22;63461;51.416;6.758;2023-05-20T03:04:03;12.60;99.90
74901;DHT22;63461;51.416;6.758;2023-05-20T03:06:29;12.60;99.90
74901;DHT22;63461;51.416;6.758;2023-05-20T03:08:56;12.60;99.90
74901;DHT22;63461;51.416;6.758;2023-05-20T03:11:23;12.50;99.90
74901;DHT22;63461;51.416;6.758;2023-05-20T03:13:49;12.50;99.90
74901;DHT22;63461;51.416;6.758;2023-05-20T03:16:16;12.50;99.90
74901;DHT22;63461;51.416;6.758;2023-05-20T03:18:43;12.50;99.90
74901;DHT22;63461;51.416;6.758;2023-05-20T03:21:09;12.50;99.90
74901;DHT22;63461;51.416;6.758;2023-05-20T03:23:35;12.50;99.90
74901;DHT22;63461;51.416;6.758;2023-05-20T03:26:01;12.50;99.90
74901;DHT22;63461;51.416;6.758;2023-05-20T03:28:27;12.50;99.90
74901;DHT22;63461;51.416;6.758;2023-05-20T03:30:53;12.50;99.90
74901;DHT22;63461;51.416;6.758;2023-05-20T03:33:20;12.50;99.90
74901;DHT22;63461;51.416;6.758;2023-05-20T03:35:47;12.40;99.90
74901;DHT22;63461;51.416;6.758;2023-05-20T03:38:15;12.40;99.90
74901;DHT22;63461;51.416;6.758;2023-05-20T03:40:40;12.50;99.90
74901;DHT22;63461;51.416;6.758;2023-05-20T03:43:06;12.40;99.90
74901;DHT22;63461;51.416;6.758;2023-05-20T03:45:32;12.40;99.90
74901;DHT22;63461;51.416;6.758;2023-05-20T03:48:06;12.40;99.90
74901;DHT22;63461;51.416;6.758;2023-05-20T03:50:33;12.40;99.90
74901;DHT22;63461;51.416;6.758;2023-05-20T03:53:00;12.40;99.90
74901;DHT22;63461;51.416;6.758;2023-05-20T03:55:26;12.40;99.90
74901;DHT22;63461;51.416;6.758;2023-05-20T03:57:53;12.40;99.90
74901;DHT22;63461;51.416;6.758;2023-05-20T04:00:19;12.40;99.90
74901;DHT22;63461;51.416;6.758;2023-05-20T04:02:47;12.40;99.90
74901;DHT22;63461;51.416;6.758;2023-05-20T04:05:16;12.40;99.90
74901;DHT22;63461;51.416;6.758;2023-05-20T04:07:42;12.40;99.90
74901;DHT22;63461;51.416;6.758;2023-05-20T04:10:08;12.40;99.90
74901;DHT22;63461;51.416;6.758;2023-05-20T04:12:34;12.40;99.90
74901;DHT22;63461;51.416;6.758;2023-05-20T04:15:03;12.40;99.90
74901;DHT22;63461;51.416;6.758;2023-05-20T04:17:37;12.40;99.90
74901;DHT22;63461;51.416;6.758;2023-05-20T04:20:05;12.40;99.90
74901;DHT22;63461;51.416;6.758;2023-05-20T04:22:33;12.40;99.90
74901;DHT22;63461;51.416;6.758;2023-05-20T04:24:59;12.50;99.90
74901;DHT22;63461;51.416;6.758;2023-05-20T04:27:28;12.40;99.90
74901;DHT22;63461;51.416;6.758;2023-05-20T04:29:55;12.40;99.90
74901;DHT22;63461;51.416;6.758;2023-05-20T04:32:23;12.40;99.90
74901;DHT22;63461;51.416;6.758;2023-05-20T04:34:49;12.40;99.90
74901;DHT22;63461;51.416;6.758;2023-05-20T04:37:15;12.50;99.90
74901;DHT22;63461;51.416;6.758;2023-05-20T04:39:41;12.40;99.90
74901;DHT22;63461;51.416;6.758;2023-05-20T04:42:11;12.40;99.90
74901;DHT22;63461;51.416;6.758;2023-05-20T04:44:38;12.50;99.90
74901;DHT22;63461;51.416;6.758;2023-05-20T04:47:04;12.50;99.90
74901;DHT22;63461;51.416;6.758;2023-05-20T04:49:33;12.50;99.90
74901;DHT22;63461;51.416;6.758;2023-05-20T04:51:59;12.50;99.90
74901;DHT22;63461;51.416;6.758;2023-05-20T04:54:25;12.50;99.90
74901;DHT22;63461;51.416;6.758;2023-05-20T04:56:51;12.50;99.90
74901;DHT22;63461;51.416;6.758;2023-05-20T04:59:17;12.50;99.90
74901;DHT22;63461;51.416;6.758;2023-05-20T05:01:43;12.50;99.90
74901;DHT22;63461;51.416;6.758;2023-05-20T05:04:09;12.60;99.90
74901;DHT22;63461;51.416;6.758;2023-05-20T05:06:35;12.50;99.90
74901;DHT22;63461;51.416;6.758;2023-05-20T05:09:01;12.60;99.90
74901;DHT22;63461;51.416;6.758;2023-05-20T05:11:27;12.60;99.90
74901;DHT22;63461;51.416;6.758;2023-05-20T05:13:53;12.70;99.90
74901;DHT22;63461;51.416;6.758;2023-05-20T05:16:22;12.70;99.90
74901;DHT22;63461;51.416;6.758;2023-05-20T05:18:48;12.70;99.90
74901;DHT22;63461;51.416;6.758;2023-05-20T05:21:14;12.80;99.90
74901;DHT22;63461;51.416;6.758;2023-05-20T05:23:40;12.80;99.90
74901;DHT22;63461;51.416;6.758;2023-05-20T05:26:07;12.80;99.90
74901;DHT22;63461;51.416;6.758;2023-05-20T05:28:33;12.90;99.90
74901;DHT22;63461;51.416;6.758;2023-05-20T05:30:59;12.90;99.90
74901;DHT22;63461;51.416;6.758;2023-05-20T05:33:27;12.90;99.90
74901;DHT22;63461;51.416;6.758;2023-05-20T05:35:54;13.00;99.90
74901;DHT22;63461;51.416;6.758;2023-05-20T05:38:21;13.00;99.90
74901;DHT22;63461;51.416;6.758;2023-05-20T05:40:47;13.10;99.90
74901;DHT22;63461;51.416;6.758;2023-05-20T05:43:14;13.10;99.90
74901;DHT22;63461;51.416;6.758;2023-05-20T05:45:40;13.10;99.90
74901;DHT22;63461;51.416;6.758;2023-05-20T05:48:07;13.20;99.90
74901;DHT22;63461;51.416;6.758;2023-05-20T05:50:33;13.20;99.90
74901;DHT22;63461;51.416;6.758;2023-05-20T05:53:00;13.20;99.90
74901;DHT22;63461;51.416;6.758;2023-05-20T05:55:26;13.30;99.90
74901;DHT22;63461;51.416;6.758;2023-05-20T05:57:53;13.30;99.90
74901;DHT22;63461;51.416;6.758;2023-05-20T06:00:19;13.30;99.90
74901;DHT22;63461;51.416;6.758;2023-05-20T06:02:46;13.40;99.90
74901;DHT22;63461;51.416;6.758;2023-05-20T06:05:20;13.40;99.90
74901;DHT22;63461;51.416;6.758;2023-05-20T06:07:46;13.50;99.90
74901;DHT22;63461;51.416;6.758;2023-05-20T06:10:12;13.50;99.90
74901;DHT22;63461;51.416;6.758;2023-05-20T06:12:38;13.50;99.90
74901;DHT22;63461;51.416;6.758;2023-05-20T06:15:04;13.60;99.90
74901;DHT22;63461;51.416;6.758;2023-05-20T06:17:31;13.60;99.90
74901;DHT22;63461;51.416;6.758;2023-05-20T06:19:57;13.70;99.90
74901;DHT22;63461;51.416;6.758;2023-05-20T06:22:23;13.70;99.90
74901;DHT22;63461;51.416;6.758;2023-05-20T06:24:49;13.70;99.90
74901;DHT22;63461;51.416;6.758;2023-05-20T06:27:15;13.80;99.90
74901;DHT22;63461;51.416;6.758;2023-05-20T06:29:41;13.80;99.90
74901;DHT22;63461;51.416;6.758;2023-05-20T06:32:07;13.90;99.90
74901;DHT22;63461;51.416;6.758;2023-05-20T06:34:33;13.90;99.90
74901;DHT22;63461;51.416;6.758;2023-05-20T06:37:00;14.00;99.90
74901;DHT22;63461;51.416;6.758;2023-05-20T06:39:25;14.00;99.90
74901;DHT22;63461;51.416;6.758;2023-05-20T06:41:51;14.00;99.90
74901;DHT22;63461;51.416;6.758;2023-05-20T06:44:26;14.00;99.90
74901;DHT22;63461;51.416;6.758;2023-05-20T06:46:58;13.90;99.90
74901;DHT22;63461;51.416;6.758;2023-05-20T06:49:24;14.00;99.90
74901;DHT22;63461;51.416;6.758;2023-05-20T06:51:50;14.10;99.90
74901;DHT22;63461;51.416;6.758;2023-05-20T06:54:16;14.20;99.90
74901;DHT22;63461;51.416;6.758;2023-05-20T06:56:42;14.20;99.90
74901;DHT22;63461;51.416;6.758;2023-05-20T06:59:09;14.20;99.90
74901;DHT22;63461;51.416;6.758;2023-05-20T07:01:36;14.20;99.90
74901;DHT22;63461;51.416;6.758;2023-05-20T07:04:02;14.30;99.90
74901;DHT22;63461;51.416;6.758;2023-05-20T07:06:28;14.30;99.90
74901;DHT22;63461;51.416;6.758;2023-05-20T07:08:56;14.30;99.90
74901;DHT22;63461;51.416;6.758;2023-05-20T07:11:22;14.30;99.90
74901;DHT22;63461;51.416;6.758;2023-05-20T07:13:47;14.30;99.90
74901;DHT22;63461;51.416;6.758;2023-05-20T07:16:13;14.30;99.90
74901;DHT22;63461;51.416;6.758;2023-05-20T07:18:43;14.40;99.90
74901;DHT22;63461;51.416;6.758;2023-05-20T07:21:09;14.50;99.90
74901;DHT22;63461;51.416;6.758;2023-05-20T07:23:44;14.60;99.90
74901;DHT22;63461;51.416;6.758;2023-05-20T07:26:10;14.70;99.90
74901;DHT22;63461;51.416;6.758;2023-05-20T07:28:37;14.80;99.90
74901;DHT22;63461;51.416;6.758;2023-05-20T07:31:03;14.90;99.90
74901;DHT22;63461;51.416;6.758;2023-05-20T07:33:31;15.00;99.90
74901;DHT22;63461;51.416;6.758;2023-05-20T07:35:58;15.10;99.90
74901;DHT22;63461;51.416;6.758;2023-05-20T07:38:24;15.20;99.90
74901;DHT22;63461;51.416;6.758;2023-05-20T07:40:55;15.30;99.90
74901;DHT22;63461;51.416;6.758;2023-05-20T07:43:21;15.40;99.90
74901;DHT22;63461;51.416;6.758;2023-05-20T07:45:47;15.50;99.90
74901;DHT22;63461;51.416;6.758;2023-05-20T07:48:13;15.60;99.90
74901;DHT22;63461;51.416;6.758;2023-05-20T07:50:39;15.80;99.90
74901;DHT22;63461;51.416;6.758;2023-05-20T07:53:05;15.80;99.90
74901;DHT22;63461;51.416;6.758;2023-05-20T07:55:33;15.80;99.90
74901;DHT22;63461;51.416;6.758;2023-05-20T07:57:59;15.90;99.90
74901;DHT22;63461;51.416;6.758;2023-05-20T08:00:25;15.80;99.90
74901;DHT22;63461;51.416;6.758;2023-05-20T08:02:51;15.90;99.90
74901;DHT22;63461;51.416;6.758;2023-05-20T08:05:24;16.00;99.90
74901;DHT22;63461;51.416;6.758;2023-05-20T08:07:50;16.10;99.90
74901;DHT22;63461;51.416;6.758;2023-05-20T08:10:17;16.10;99.90
74901;DHT22;63461;51.416;6.758;2023-05-20T08:12:45;16.10;99.90
74901;DHT22;63461;51.416;6.758;2023-05-20T08:15:11;16.20;99.90
74901;DHT22;63461;51.416;6.758;2023-05-20T08:17:38;16.30;99.90
74901;DHT22;63461;51.416;6.758;2023-05-20T08:20:05;16.30;99.90
74901;DHT22;63461;51.416;6.758;2023-05-20T08:22:34;16.20;99.90
74901;DHT22;63461;51.416;6.758;2023-05-20T08:25:01;16.30;99.90
74901;DHT22;63461;51.416;6.758;2023-05-20T08:27:27;16.30;99.90
74901;DHT22;63461;51.416;6.758;2023-05-20T08:29:53;16.40;99.90
74901;DHT22;63461;51.416;6.758;2023-05-20T08:32:19;16.40;99.90
74901;DHT22;63461;51.416;6.758;2023-05-20T08:34:45;16.40;99.90
74901;DHT22;63461;51.416;6.758;2023-05-20T08:37:11;16.50;99.90
74901;DHT22;63461;51.416;6.758;2023-05-20T08:39:37;16.50;99.90
74901;DHT22;63461;51.416;6.758;2023-05-20T08:42:03;16.60;99.90
74901;DHT22;63461;51.416;6.758;2023-05-20T08:44:32;16.60;99.90
74901;DHT22;63461;51.416;6.758;2023-05-20T08:46:58;16.70;99.90
74901;DHT22;63461;51.416;6.758;2023-05-20T08:49:24;16.80;99.90
74901;DHT22;63461;51.416;6.758;2023-05-20T08:51:50;16.90;99.90
74901;DHT22;63461;51.416;6.758;2023-05-20T08:54:16;16.80;99.90
74901;DHT22;63461;51.416;6.758;2023-05-20T08:56:43;16.80;99.90
74901;DHT22;63461;51.416;6.758;2023-05-20T08:59:08;16.90;99.90
74901;DHT22;63461;51.416;6.758;2023-05-20T09:01:40;16.90;99.90
74901;DHT22;63461;51.416;6.758;2023-05-20T09:04:06;17.00;99.90
74901;DHT22;63461;51.416;6.758;2023-05-20T09:06:42;17.10;99.90
74901;DHT22;63461;51.416;6.758;2023-05-20T09:09:13;17.20;99.90
74901;DHT22;63461;51.416;6.758;2023-05-20T09:11:40;17.30;99.90
74901;DHT22;63461;51.416;6.758;2023-05-20T09:14:06;17.30;99.90
74901;DHT22;63461;51.416;6.758;2023-05-20T09:16:33;17.50;99.90
74901;DHT22;63461;51.416;6.758;2023-05-20T09:18:58;17.30;99.90
74901;DHT22;63461;51.416;6.758;2023-05-20T09:21:28;17.30;99.90
74901;DHT22;63461;51.416;6.758;2023-05-20T09:23:54;17.30;99.90
74901;DHT22;63461;51.416;6.758;2023-05-20T09:26:26;17.40;99.90
74901;DHT22;63461;51.416;6.758;2023-05-20T09:28:55;17.50;99.90
74901;DHT22;63461;51.416;6.758;2023-05-20T09:31:25;17.60;99.90
74901;DHT22;63461;51.416;6.758;2023-05-20T09:33:51;17.60;99.90
74901;DHT22;63461;51.416;6.758;2023-05-20T09:36:18;17.60;99.90
74901;DHT22;63461;51.416;6.758;2023-05-20T09:38:45;17.70;99.90
74901;DHT22;63461;51.416;6.758;2023-05-20T09:41:12;17.80;99.90
74901;DHT22;63461;51.416;6.758;2023-05-20T09:43:39;17.80;99.90
74901;DHT22;63461;51.416;6.758;2023-05-20T09:46:05;17.60;99.90
74901;DHT22;63461;51.416;6.758;2023-05-20T09:48:32;17.70;99.90
74901;DHT22;63461;51.416;6.758;2023-05-20T09:51:00;17.80;99.90
74901;DHT22;63461;51.416;6.758;2023-05-20T09:53:27;17.90;99.90
74901;DHT22;63461;51.416;6.758;2023-05-20T09:55:54;17.90;99.90
74901;DHT22;63461;51.416;6.758;2023-05-20T09:58:21;18.00;99.90
74901;DHT22;63461;51.416;6.758;2023-05-20T10:00:47;18.10;99.90
74901;DHT22;63461;51.416;6.758;2023-05-20T10:03:13;18.00;99.90
74901;DHT22;63461;51.416;6.758;2023-05-20T10:05:45;18.10;99.90
74901;DHT22;63461;51.416;6.758;2023-05-20T10:08:34;18.10;99.90
74901;DHT22;63461;51.416;6.758;2023-05-20T10:11:15;18.00;99.90
74901;DHT22;63461;51.416;6.758;2023-05-20T10:13:58;18.20;99.90
74901;DHT22;63461;51.416;6.758;2023-05-20T10:16:55;18.20;99.90
74901;DHT22;63461;51.416;6.758;2023-05-20T10:19:31;18.10;99.90
74901;DHT22;63461;51.416;6.758;2023-05-20T10:22:01;18.00;99.90
74901;DHT22;63461;51.416;6.758;2023-05-20T10:24:34;18.20;99.90
74901;DHT22;63461;51.416;6.758;2023-05-20T10:27:02;18.10;99.90
74901;DHT22;63461;51.416;6.758;2023-05-20T10:29:28;18.10;99.90
74901;DHT22;63461;51.416;6.758;2023-05-20T10:31:54;18.10;99.90
74901;DHT22;63461;51.416;6.758;2023-05-20T10:34:21;18.10;99.90
74901;DHT22;63461;51.416;6.758;2023-05-20T10:39:28;18.20;99.90
74901;DHT22;63461;51.416;6.758;2023-05-20T10:42:10;18.20;99.90
74901;DHT22;63461;51.416;6.758;2023-05-20T10:44:43;18.10;99.90
74901;DHT22;63461;51.416;6.758;2023-05-20T10:47:10;18.10;99.90
74901;DHT22;63461;51.416;6.758;2023-05-20T10:49:43;17.90;99.90
74901;DHT22;63461;51.416;6.758;2023-05-20T10:52:10;18.10;99.90
74901;DHT22;63461;51.416;6.758;2023-05-20T10:54:56;18.30;99.90
74901;DHT22;63461;51.416;6.758;2023-05-20T10:57:24;18.30;99.90
74901;DHT22;63461;51.416;6.758;2023-05-20T10:59:50;18.40;99.90
74901;DHT22;63461;51.416;6.758;2023-05-20T11:02:18;18.30;99.90
74901;DHT22;63461;51.416;6.758;2023-05-20T11:04:45;18.40;99.90
74901;DHT22;63461;51.416;6.758;2023-05-20T11:07:12;18.50;99.90
74901;DHT22;63461;51.416;6.758;2023-05-20T11:09:38;18.40;99.90
74901;DHT22;63461;51.416;6.758;2023-05-20T11:12:04;18.30;99.90
74901;DHT22;63461;51.416;6.758;2023-05-20T11:14:30;18.20;99.90
74901;DHT22;63461;51.416;6.758;2023-05-20T11:17:09;18.50;99.90
74901;DHT22;63461;51.416;6.758;2023-05-20T11:19:53;18.40;99.90
74901;DHT22;63461;51.416;6.758;2023-05-20T11:22:19;18.50;99.90
74901;DHT22;63461;51.416;6.758;2023-05-20T11:24:45;18.40;99.90
74901;DHT22;63461;51.416;6.758;2023-05-20T11:27:11;18.50;99.90
74901;DHT22;63461;51.416;6.758;2023-05-20T11:29:37;18.60;99.90
74901;DHT22;63461;51.416;6.758;2023-05-20T11:32:04;18.60;99.90
74901;DHT22;63461;51.416;6.758;2023-05-20T11:34:34;18.70;99.90
74901;DHT22;63461;51.416;6.758;2023-05-20T11:37:00;18.70;99.90
74901;DHT22;63461;51.416;6.758;2023-05-20T11:39:30;18.70;99.90
74901;DHT22;63461;51.416;6.758;2023-05-20T11:41:56;18.70;99.90
74901;DHT22;63461;51.416;6.758;2023-05-20T11:44:23;18.60;99.90
74901;DHT22;63461;51.416;6.758;2023-05-20T11:46:49;18.90;99.90
74901;DHT22;63461;51.416;6.758;2023-05-20T11:49:16;18.70;99.90
74901;DHT22;63461;51.416;6.758;2023-05-20T11:51:42;18.70;99.90
74901;DHT22;63461;51.416;6.758;2023-05-20T11:54:09;18.90;99.90
74901;DHT22;63461;51.416;6.758;2023-05-20T11:56:36;18.80;99.90
74901;DHT22;63461;51.416;6.758;2023-05-20T11:59:07;18.90;99.90
74901;DHT22;63461;51.416;6.758;2023-05-20T12:01:37;18.90;99.90
74901;DHT22;63461;51.416;6.758;2023-05-20T12:04:08;19.20;99.90
74901;DHT22;63461;51.416;6.758;2023-05-20T12:06:33;19.20;99.90
74901;DHT22;63461;51.416;6.758;2023-05-20T12:09:02;19.50;99.90
74901;DHT22;63461;51.416;6.758;2023-05-20T12:11:36;19.60;99.90
74901;DHT22;63461;51.416;6.758;2023-05-20T12:14:06;19.60;99.90
74901;DHT22;63461;51.416;6.758;2023-05-20T12:16:33;19.60;99.90
74901;DHT22;63461;51.416;6.758;2023-05-20T12:18:59;19.60;99.90
74901;DHT22;63461;51.416;6.758;2023-05-20T12:21:26;19.70;99.90
74901;DHT22;63461;51.416;6.758;2023-05-20T12:23:52;19.60;99.90
74901;DHT22;63461;51.416;6.758;2023-05-20T12:26:25;19.80;99.90
74901;DHT22;63461;51.416;6.758;2023-05-20T12:28:52;20.00;99.90
74901;DHT22;63461;51.416;6.758;2023-05-20T12:31:18;20.00;99.90
74901;DHT22;63461;51.416;6.758;2023-05-20T12:33:44;19.80;99.90
74901;DHT22;63461;51.416;6.758;2023-05-20T12:36:10;20.00;99.90
74901;DHT22;63461;51.416;6.758;2023-05-20T12:38:35;20.10;99.90
74901;DHT22;63461;51.416;6.758;2023-05-20T12:41:01;20.00;99.90
74901;DHT22;63461;51.416;6.758;2023-05-20T12:43:27;20.00;99.90
74901;DHT22;63461;51.416;6.758;2023-05-20T12:45:53;20.10;99.90
74901;DHT22;63461;51.416;6.758;2023-05-20T12:48:19;20.40;99.90
74901;DHT22;63461;51.416;6.758;2023-05-20T12:50:45;20.40;99.90
74901;DHT22;63461;51.416;6.758;2023-05-20T12:53:11;20.50;99.90
74901;DHT22;63461;51.416;6.758;2023-05-20T12:55:36;20.60;99.90
74901;DHT22;63461;51.416;6.758;2023-05-20T12:58:03;20.60;99.90
74901;DHT22;63461;51.416;6.758;2023-05-20T13:00:28;20.60;99.90
74901;DHT22;63461;51.416;6.758;2023-05-20T13:02:54;20.40;99.90
74901;DHT22;63461;51.416;6.758;2023-05-20T13:05:21;20.60;99.90
74901;DHT22;63461;51.416;6.758;2023-05-20T13:07:47;20.70;99.90
74901;DHT22;63461;51.416;6.758;2023-05-20T13:10:13;20.70;99.90
74901;DHT22;63461;51.416;6.758;2023-05-20T13:12:39;20.60;99.90
74901;DHT22;63461;51.416;6.758;2023-05-20T13:15:13;20.70;99.90
74901;DHT22;63461;51.416;6.758;2023-05-20T13:17:40;20.70;99.90
74901;DHT22;63461;51.416;6.758;2023-05-20T13:20:06;20.80;99.90
74901;DHT22;63461;51.416;6.758;2023-05-20T13:22:32;20.70;99.90
74901;DHT22;63461;51.416;6.758;2023-05-20T13:24:58;20.80;99.90
74901;DHT22;63461;51.416;6.758;2023-05-20T13:27:24;20.80;99.90
74901;DHT22;63461;51.416;6.758;2023-05-20T13:29:50;20.90;99.90
74901;DHT22;63461;51.416;6.758;2023-05-20T13:32:16;20.90;99.90
74901;DHT22;63461;51.416;6.758;2023-05-20T13:34:42;20.90;99.90
74901;DHT22;63461;51.416;6.758;2023-05-20T13:37:08;20.90;99.90
74901;DHT22;63461;51.416;6.758;2023-05-20T13:39:33;20.90;99.90
74901;DHT22;63461;51.416;6.758;2023-05-20T13:41:59;20.70;99.90
74901;DHT22;63461;51.416;6.758;2023-05-20T13:44:25;20.70;99.90
74901;DHT22;63461;51.416;6.758;2023-05-20T13:46:51;20.60;99.90
74901;DHT22;63461;51.416;6.758;2023-05-20T13:49:17;20.70;99.90
74901;DHT22;63461;51.416;6.758;2023-05-20T13:51:42;20.60;99.90
74901;DHT22;63461;51.416;6.758;2023-05-20T13:54:08;20.60;99.90
74901;DHT22;63461;51.416;6.758;2023-05-20T13:56:34;20.50;99.90
74901;DHT22;63461;51.416;6.758;2023-05-20T13:59:00;20.40;99.90
74901;DHT22;63461;51.416;6.758;2023-05-20T14:01:29;20.40;99.90
74901;DHT22;63461;51.416;6.758;2023-05-20T14:03:57;20.30;99.90
74901;DHT22;63461;51.416;6.758;2023-05-20T14:06:23;20.20;99.90
74901;DHT22;63461;51.416;6.758;2023-05-20T14:08:49;20.10;99.90
74901;DHT22;63461;51.416;6.758;2023-05-20T14:11:15;20.20;99.90
74901;DHT22;63461;51.416;6.758;2023-05-20T14:13:40;20.10;99.90
74901;DHT22;63461;51.416;6.758;2023-05-20T14:16:06;20.10;99.90
74901;DHT22;63461;51.416;6.758;2023-05-20T14:18:32;20.10;99.90
74901;DHT22;63461;51.416;6.758;2023-05-20T14:20:58;20.20;99.90
74901;DHT22;63461;51.416;6.758;2023-05-20T14:23:24;20.20;99.90
74901;DHT22;63461;51.416;6.758;2023-05-20T14:25:50;20.10;99.90
74901;DHT22;63461;51.416;6.758;2023-05-20T14:28:15;20.10;99.90
74901;DHT22;63461;51.416;6.758;2023-05-20T14:30:41;20.10;99.90
74901;DHT22;63461;51.416;6.758;2023-05-20T14:33:07;20.20;99.90
74901;DHT22;63461;51.416;6.758;2023-05-20T14:35:33;20.10;99.90
74901;DHT22;63461;51.416;6.758;2023-05-20T14:37:58;20.20;99.90
74901;DHT22;63461;51.416;6.758;2023-05-20T14:40:24;20.30;99.90
74901;DHT22;63461;51.416;6.758;2023-05-20T14:42:50;20.40;99.90
74901;DHT22;63461;51.416;6.758;2023-05-20T14:45:16;20.40;99.90
74901;DHT22;63461;51.416;6.758;2023-05-20T14:47:41;20.40;99.90
74901;DHT22;63461;51.416;6.758;2023-05-20T14:50:07;20.50;99.90
74901;DHT22;63461;51.416;6.758;2023-05-20T14:52:33;20.60;99.90
74901;DHT22;63461;51.416;6.758;2023-05-20T14:54:59;20.40;99.90
74901;DHT22;63461;51.416;6.758;2023-05-20T14:57:25;20.40;99.90
74901;DHT22;63461;51.416;6.758;2023-05-20T14:59:50;20.50;99.90
74901;DHT22;63461;51.416;6.758;2023-05-20T15:02:17;20.50;99.90
74901;DHT22;63461;51.416;6.758;2023-05-20T15:04:44;20.40;99.90
74901;DHT22;63461;51.416;6.758;2023-05-20T15:07:15;20.30;99.90
74901;DHT22;63461;51.416;6.758;2023-05-20T15:09:41;20.50;99.90
74901;DHT22;63461;51.416;6.758;2023-05-20T15:12:09;20.60;99.90
74901;DHT22;63461;51.416;6.758;2023-05-20T15:14:35;20.50;99.90
74901;DHT22;63461;51.416;6.758;2023-05-20T15:17:02;20.60;99.90
74901;DHT22;63461;51.416;6.758;2023-05-20T15:19:30;20.50;99.80
74901;DHT22;63461;51.416;6.758;2023-05-20T15:21:56;20.50;99.90
74901;DHT22;63461;51.416;6.758;2023-05-20T15:24:21;20.40;99.90
74901;DHT22;63461;51.416;6.758;2023-05-20T15:26:47;20.30;99.90
74901;DHT22;63461;51.416;6.758;2023-05-20T15:29:13;20.20;99.90
74901;DHT22;63461;51.416;6.758;2023-05-20T15:31:39;20.10;99.90